Time;durP1;ratioP1;P1;durP2;ratioP2;P2;SDS_P1;SDS_P2;PMS_P1;PMS_P2;Temp;Humidity;BMP_temperature;BMP_pressure;BME280_temperature;BME280_humidity;BME280_pressure;Samples;Min_cycle;Max_cycle;Signal;HPM_P1;HPM_P2
2023/08/24 00:02:06;;;;;;;3.65;2.40;;;19.80;98.40;;;;;;5074304;28;20024;-75
2023/08/24 00:04:32;;;;;;;6.65;3.70;;;19.80;98.50;;;;;;5060702;28;20020;-75
2023/08/24 00:06:57;;;;;;;5.43;3.42;;;19.80;98.50;;;;;;5075238;28;20028;-75
2023/08/24 00:09:23;;;;;;;4.65;3.58;;;19.70;98.50;;;;;;5073864;28;20028;-75
2023/08/24 00:11:50;;;;;;;4.15;2.90;;;19.70;98.60;;;;;;5062723;28;20028;-75
2023/08/24 00:14:15;;;;;;;5.10;3.28;;;19.70;98.70;;;;;;5062753;28;20024;-75
2023/08/24 00:16:42;;;;;;;5.40;3.25;;;19.70;98.70;;;;;;5074120;28;20381;-75
2023/08/24 00:19:08;;;;;;;9.32;3.42;;;19.70;98.80;;;;;;5073502;28;20036;-75
2023/08/24 00:21:33;;;;;;;4.28;3.10;;;19.60;98.80;;;;;;5073050;28;20028;-75
2023/08/24 00:23:59;;;;;;;10.00;3.92;;;19.60;98.80;;;;;;5064543;28;20033;-75
2023/08/24 00:26:25;;;;;;;5.32;3.42;;;19.60;98.90;;;;;;5073824;28;20021;-75
2023/08/24 00:28:51;;;;;;;6.22;3.60;;;19.60;98.90;;;;;;5072944;28;20381;-75
2023/08/24 00:31:17;;;;;;;4.97;3.00;;;19.60;98.90;;;;;;5073608;28;20021;-75
2023/08/24 00:33:43;;;;;;;5.88;3.55;;;19.60;99.00;;;;;;5067312;28;20518;-75
2023/08/24 00:36:08;;;;;;;8.13;3.92;;;19.60;99.00;;;;;;5074106;28;20103;-75
2023/08/24 00:38:34;;;;;;;3.85;3.20;;;19.60;99.10;;;;;;5073864;28;20051;-76
2023/08/24 00:40:59;;;;;;;4.95;3.88;;;19.60;99.10;;;;;;5074782;28;20047;-75
2023/08/24 00:43:27;;;;;;;5.03;3.38;;;19.60;99.20;;;;;;5070003;28;20027;-75
2023/08/24 00:45:55;;;;;;;7.20;3.50;;;19.60;99.20;;;;;;5074381;28;20017;-75
2023/08/24 00:48:25;;;;;;;7.68;4.47;;;19.60;99.20;;;;;;5073995;28;20172;-75
2023/08/24 00:50:55;;;;;;;4.95;4.38;;;19.60;99.30;;;;;;5074536;28;20454;-75
2023/08/24 00:53:22;;;;;;;5.20;3.78;;;19.50;99.30;;;;;;5050234;28;20071;-75
2023/08/24 00:55:48;;;;;;;3.60;2.78;;;19.50;99.30;;;;;;5070582;28;20545;-75
2023/08/24 00:58:14;;;;;;;6.18;3.55;;;19.50;99.40;;;;;;5073821;28;20111;-75
2023/08/24 01:00:40;;;;;;;7.32;4.35;;;19.50;99.40;;;;;;5089109;28;20029;-75
2023/08/24 01:03:06;;;;;;;4.47;4.05;;;19.50;99.50;;;;;;5066247;28;20021;-75
2023/08/24 01:05:31;;;;;;;4.78;3.30;;;19.50;99.60;;;;;;5056063;28;20051;-75
2023/08/24 01:07:57;;;;;;;6.13;4.05;;;19.50;99.60;;;;;;5074146;28;20020;-75
2023/08/24 01:10:26;;;;;;;4.22;3.83;;;19.50;99.70;;;;;;5056984;28;20112;-75
2023/08/24 01:13:07;;;;;;;5.68;3.42;;;19.50;99.80;;;;;;5058673;28;20020;-75
2023/08/24 01:15:47;;;;;;;4.03;3.30;;;19.50;99.90;;;;;;5069617;28;20088;-75
2023/08/24 01:18:16;;;;;;;4.82;3.70;;;19.60;99.90;;;;;;5062465;28;20035;-75
2023/08/24 01:20:43;;;;;;;5.40;3.75;;;19.50;99.90;;;;;;5065969;28;20024;-75
2023/08/24 01:23:23;;;;;;;6.78;4.07;;;19.50;99.90;;;;;;5051238;28;20029;-75
2023/08/24 01:25:53;;;;;;;4.70;3.67;;;19.50;99.90;;;;;;5059885;28;20024;-75
2023/08/24 01:28:21;;;;;;;5.18;3.75;;;19.50;99.90;;;;;;5054450;28;20024;-75
2023/08/24 01:30:47;;;;;;;6.60;4.95;;;19.50;99.90;;;;;;5051463;28;20033;-75
2023/08/24 01:33:14;;;;;;;7.95;4.28;;;19.50;99.90;;;;;;5051264;28;20021;-75
2023/08/24 01:35:41;;;;;;;7.15;5.70;;;19.50;99.90;;;;;;5051275;28;20033;-75
2023/08/24 01:38:07;;;;;;;6.82;6.00;;;19.50;99.90;;;;;;5049750;28;20067;-75
2023/08/24 01:40:51;;;;;;;9.07;5.80;;;19.50;99.90;;;;;;5050779;28;20024;-75
2023/08/24 01:43:20;;;;;;;8.23;7.00;;;19.60;99.90;;;;;;5065354;28;20036;-75
2023/08/24 01:45:47;;;;;;;7.57;6.03;;;19.60;99.90;;;;;;5054053;28;20437;-75
2023/08/24 01:48:14;;;;;;;7.78;7.03;;;19.60;99.90;;;;;;5050617;28;20478;-75
2023/08/24 01:50:41;;;;;;;8.25;6.30;;;19.60;99.90;;;;;;5050703;28;20033;-75
2023/08/24 01:53:07;;;;;;;7.53;6.75;;;19.60;99.90;;;;;;5069006;28;20040;-75
2023/08/24 01:55:33;;;;;;;8.38;6.43;;;19.60;99.90;;;;;;5061313;28;20501;-75
2023/08/24 01:57:58;;;;;;;8.02;7.22;;;19.60;99.90;;;;;;5062301;28;20032;-76
2023/08/24 02:00:24;;;;;;;11.88;8.13;;;19.60;99.90;;;;;;5050035;28;20079;-75
2023/08/24 02:02:50;;;;;;;9.40;7.93;;;19.60;99.90;;;;;;5051032;28;20075;-76
2023/08/24 02:05:15;;;;;;;10.52;7.47;;;19.60;99.90;;;;;;5050275;28;20029;-76
2023/08/24 02:07:41;;;;;;;11.32;8.45;;;19.60;99.90;;;;;;5050792;28;20090;-75
2023/08/24 02:10:07;;;;;;;9.57;8.07;;;19.70;99.90;;;;;;5050830;28;20025;-75
2023/08/24 02:12:32;;;;;;;10.50;9.48;;;19.70;99.90;;;;;;5054683;28;20032;-75
2023/08/24 02:14:58;;;;;;;13.52;9.30;;;19.70;99.90;;;;;;5066981;28;20025;-76
2023/08/24 02:17:24;;;;;;;8.45;7.60;;;19.70;99.90;;;;;;5067229;28;20024;-75
2023/08/24 02:19:50;;;;;;;9.63;8.57;;;19.70;99.90;;;;;;5069972;28;20031;-75
2023/08/24 02:22:15;;;;;;;8.48;7.55;;;19.80;99.90;;;;;;5068859;28;20036;-75
2023/08/24 02:24:41;;;;;;;9.77;8.80;;;19.80;99.90;;;;;;5067369;28;20579;-75
2023/08/24 02:27:07;;;;;;;8.55;7.05;;;19.80;99.90;;;;;;5067576;28;20462;-76
2023/08/24 02:29:32;;;;;;;8.23;7.30;;;19.80;99.90;;;;;;5069399;28;20393;-75
2023/08/24 02:31:58;;;;;;;10.38;8.13;;;19.90;99.90;;;;;;5063572;28;20103;-76
2023/08/24 02:34:23;;;;;;;11.95;7.55;;;19.90;99.90;;;;;;5058978;28;20097;-75
2023/08/24 02:36:49;;;;;;;10.18;8.98;;;19.90;99.90;;;;;;5067158;28;20028;-75
2023/08/24 02:39:14;;;;;;;11.52;9.30;;;19.90;99.90;;;;;;5067684;28;20490;-76
2023/08/24 02:41:40;;;;;;;10.35;9.38;;;19.90;99.90;;;;;;5061809;28;20620;-76
2023/08/24 02:44:05;;;;;;;10.15;9.10;;;19.90;99.90;;;;;;5059593;28;20437;-76
2023/08/24 02:46:31;;;;;;;12.27;8.30;;;19.90;99.90;;;;;;5066479;28;20021;-76
2023/08/24 02:48:57;;;;;;;14.73;9.57;;;19.90;99.90;;;;;;5066812;28;20032;-76
2023/08/24 02:51:23;;;;;;;14.40;10.52;;;19.90;99.90;;;;;;5054952;28;20017;-76
2023/08/24 02:53:49;;;;;;;10.82;8.85;;;19.90;99.90;;;;;;5060371;28;20044;-76
2023/08/24 02:56:15;;;;;;;12.68;10.13;;;19.90;99.90;;;;;;5050812;28;20481;-76
2023/08/24 02:58:40;;;;;;;10.10;9.18;;;19.90;99.90;;;;;;5060101;28;20086;-76
2023/08/24 03:01:07;;;;;;;11.75;9.77;;;19.90;99.90;;;;;;5051715;28;20376;-76
2023/08/24 03:03:34;;;;;;;11.77;10.50;;;19.80;99.90;;;;;;5049058;28;20021;-76
2023/08/24 03:06:02;;;;;;;15.90;10.80;;;19.80;99.90;;;;;;5049537;28;20053;-78
2023/08/24 03:08:29;;;;;;;11.63;10.48;;;19.80;99.90;;;;;;5048957;28;20540;-76
2023/08/24 03:10:55;;;;;;;11.35;10.15;;;19.70;99.90;;;;;;5053558;28;20086;-76
2023/08/24 03:13:21;;;;;;;14.77;11.32;;;19.80;99.90;;;;;;5063571;28;20487;-76
2023/08/24 03:15:47;;;;;;;12.73;11.40;;;19.70;99.90;;;;;;5062792;28;20112;-77
2023/08/24 03:18:13;;;;;;;11.48;9.27;;;19.60;99.90;;;;;;5049586;28;20060;-76
2023/08/24 03:20:40;;;;;;;15.82;10.40;;;19.60;99.90;;;;;;5049109;28;20023;-76
2023/08/24 03:23:06;;;;;;;12.90;11.20;;;19.60;99.90;;;;;;5049232;28;20029;-76
2023/08/24 03:25:36;;;;;;;11.73;9.55;;;19.50;99.90;;;;;;5066029;28;20032;-76
2023/08/24 03:28:02;;;;;;;12.38;10.93;;;19.50;99.90;;;;;;5069163;28;20074;-76
2023/08/24 03:30:28;;;;;;;12.23;11.00;;;19.50;99.90;;;;;;5054827;28;20020;-75
2023/08/24 03:32:53;;;;;;;13.02;11.73;;;19.40;99.90;;;;;;5069220;28;20024;-77
2023/08/24 03:35:19;;;;;;;12.00;10.85;;;19.40;99.90;;;;;;5066232;28;20516;-76
2023/08/24 03:37:45;;;;;;;14.38;12.45;;;19.40;99.90;;;;;;5057223;28;20040;-76
2023/08/24 03:40:12;;;;;;;13.32;11.02;;;19.30;99.90;;;;;;5058711;28;20024;-76
2023/08/24 03:42:37;;;;;;;14.32;12.15;;;19.30;99.90;;;;;;5051429;28;20043;-76
2023/08/24 03:45:03;;;;;;;15.25;11.63;;;19.20;99.90;;;;;;5047626;28;20009;-75
2023/08/24 03:47:29;;;;;;;11.63;10.43;;;19.20;99.90;;;;;;5049649;28;20079;-75
2023/08/24 03:49:54;;;;;;;12.05;10.77;;;19.20;99.90;;;;;;5062004;28;20021;-76
2023/08/24 03:52:20;;;;;;;13.30;11.63;;;19.20;99.90;;;;;;5060545;28;20028;-75
2023/08/24 03:54:46;;;;;;;12.05;10.75;;;19.10;99.90;;;;;;5061943;28;20021;-76
2023/08/24 03:57:11;;;;;;;11.98;10.45;;;19.10;99.90;;;;;;5048719;28;20025;-76
2023/08/24 03:59:37;;;;;;;11.70;10.60;;;19.00;99.90;;;;;;5048427;28;20041;-76
2023/08/24 04:02:03;;;;;;;12.82;10.52;;;19.10;99.90;;;;;;5049345;28;20021;-76
2023/08/24 04:04:30;;;;;;;12.95;11.50;;;19.00;99.90;;;;;;5049074;28;20469;-76
2023/08/24 04:06:55;;;;;;;16.40;11.82;;;19.00;99.90;;;;;;5049651;28;20100;-76
2023/08/24 04:09:21;;;;;;;15.57;11.48;;;19.00;99.90;;;;;;5048733;28;20506;-76
2023/08/24 04:11:47;;;;;;;19.00;12.38;;;18.90;99.90;;;;;;5049510;28;20032;-76
2023/08/24 04:14:13;;;;;;;13.45;12.18;;;18.90;99.90;;;;;;5049880;28;20079;-76
2023/08/24 04:16:39;;;;;;;12.20;10.98;;;18.90;99.90;;;;;;5048831;28;20071;-76
2023/08/24 04:19:04;;;;;;;16.80;11.43;;;18.90;99.90;;;;;;5048915;28;20033;-76
2023/08/24 04:21:30;;;;;;;16.15;13.43;;;18.90;99.90;;;;;;5048444;28;20548;-76
2023/08/24 04:23:56;;;;;;;16.45;12.07;;;18.80;99.90;;;;;;5048731;28;20013;-76
2023/08/24 04:26:21;;;;;;;12.15;9.75;;;18.80;99.90;;;;;;5048135;28;20036;-75
2023/08/24 04:28:47;;;;;;;14.90;12.48;;;18.80;99.90;;;;;;5049162;28;20040;-76
2023/08/24 04:31:12;;;;;;;14.70;12.13;;;18.80;99.90;;;;;;5048737;28;20482;-75
2023/08/24 04:33:38;;;;;;;16.67;13.02;;;18.80;99.90;;;;;;5049284;28;20155;-76
2023/08/24 04:36:04;;;;;;;12.88;11.55;;;18.80;99.90;;;;;;5049301;28;20032;-75
2023/08/24 04:38:29;;;;;;;13.18;11.77;;;18.70;99.90;;;;;;5049540;28;20033;-75
2023/08/24 04:40:55;;;;;;;14.43;12.90;;;18.80;99.90;;;;;;5049717;28;20017;-76
2023/08/24 04:43:23;;;;;;;12.20;10.38;;;18.70;99.90;;;;;;5050074;28;20348;-75
2023/08/24 04:45:54;;;;;;;11.90;10.73;;;18.70;99.90;;;;;;5049520;28;20060;-75
2023/08/24 04:48:20;;;;;;;12.82;11.60;;;18.70;99.90;;;;;;5050694;28;20029;-75
2023/08/24 04:50:46;;;;;;;13.65;11.77;;;18.70;99.90;;;;;;5053301;28;20049;-76
2023/08/24 04:53:14;;;;;;;15.52;11.30;;;18.70;99.90;;;;;;5070522;28;20044;-75
2023/08/24 04:55:40;;;;;;;12.48;11.15;;;18.70;99.90;;;;;;5062997;28;20122;-75
2023/08/24 04:58:08;;;;;;;14.70;12.80;;;18.70;99.90;;;;;;5064991;28;20144;-76
2023/08/24 05:00:35;;;;;;;13.70;12.30;;;18.70;99.90;;;;;;5051312;28;20017;-76
2023/08/24 05:03:01;;;;;;;12.63;11.23;;;18.70;99.90;;;;;;5058017;28;20111;-76
2023/08/24 05:05:29;;;;;;;13.43;11.13;;;18.80;99.90;;;;;;5064643;28;20025;-75
2023/08/24 05:07:55;;;;;;;11.57;10.40;;;18.80;99.90;;;;;;5045675;28;20028;-75
2023/08/24 05:10:21;;;;;;;11.77;10.73;;;18.80;99.90;;;;;;5070619;28;20016;-75
2023/08/24 05:12:46;;;;;;;12.25;11.05;;;18.80;99.90;;;;;;5045556;28;20461;-75
2023/08/24 05:15:13;;;;;;;12.65;11.18;;;18.80;99.90;;;;;;5066812;28;20033;-75
2023/08/24 05:17:39;;;;;;;13.60;11.82;;;18.80;99.90;;;;;;5070627;28;20481;-75
2023/08/24 05:20:06;;;;;;;12.57;11.38;;;18.90;99.90;;;;;;5069682;28;20096;-75
2023/08/24 05:22:31;;;;;;;12.95;11.65;;;18.90;99.90;;;;;;5069825;28;20019;-75
2023/08/24 05:24:57;;;;;;;12.70;11.40;;;18.90;99.90;;;;;;5068356;28;20017;-75
2023/08/24 05:27:22;;;;;;;15.13;13.45;;;19.00;99.90;;;;;;5061769;28;20025;-75
2023/08/24 05:29:48;;;;;;;14.27;11.82;;;19.00;99.90;;;;;;5062369;28;20055;-76
2023/08/24 05:32:13;;;;;;;16.75;11.90;;;19.00;99.90;;;;;;5057321;28;20017;-75
2023/08/24 05:34:39;;;;;;;13.10;11.82;;;19.00;99.90;;;;;;5062718;28;20108;-76
2023/08/24 05:37:04;;;;;;;11.00;9.90;;;19.00;99.90;;;;;;5056574;28;20025;-75
2023/08/24 05:39:30;;;;;;;13.18;11.30;;;19.10;99.90;;;;;;5063093;28;20435;-75
2023/08/24 05:41:55;;;;;;;13.20;12.00;;;19.10;99.90;;;;;;5057455;28;20025;-75
2023/08/24 05:44:21;;;;;;;15.98;12.50;;;19.10;99.90;;;;;;5050829;28;20023;-76
2023/08/24 05:46:47;;;;;;;15.80;13.32;;;19.20;99.90;;;;;;5056999;28;20497;-76
2023/08/24 05:49:13;;;;;;;16.27;12.32;;;19.20;99.90;;;;;;5064248;28;20016;-75
2023/08/24 05:51:39;;;;;;;14.63;12.32;;;19.20;99.90;;;;;;5049728;28;20112;-75
2023/08/24 05:54:05;;;;;;;12.95;11.70;;;19.20;99.90;;;;;;5064076;28;20504;-75
2023/08/24 05:56:31;;;;;;;12.10;10.75;;;19.30;99.90;;;;;;5055817;28;20041;-75
2023/08/24 05:58:58;;;;;;;14.20;12.75;;;19.30;99.90;;;;;;5049974;28;20037;-75
2023/08/24 06:01:24;;;;;;;14.90;13.48;;;19.30;99.90;;;;;;5037120;28;20009;-76
2023/08/24 06:03:50;;;;;;;13.45;12.05;;;19.40;99.90;;;;;;5049523;28;20486;-77
2023/08/24 06:06:16;;;;;;;12.82;11.52;;;19.40;99.90;;;;;;5049870;28;20029;-76
2023/08/24 06:08:42;;;;;;;14.90;13.60;;;19.40;99.90;;;;;;5062903;28;20127;-76
2023/08/24 06:11:08;;;;;;;14.40;13.15;;;19.50;99.90;;;;;;5052694;28;20104;-76
2023/08/24 06:13:33;;;;;;;15.10;13.60;;;19.50;99.90;;;;;;5061691;28;20557;-76
2023/08/24 06:15:59;;;;;;;13.15;11.95;;;19.60;99.90;;;;;;5043972;28;20028;-76
2023/08/24 06:18:25;;;;;;;17.10;13.85;;;19.60;99.90;;;;;;5068761;28;20033;-75
2023/08/24 06:20:51;;;;;;;13.43;12.13;;;19.60;99.90;;;;;;5069603;28;20043;-76
2023/08/24 06:23:19;;;;;;;15.90;14.27;;;19.70;99.90;;;;;;5070162;28;20025;-76
2023/08/24 06:25:46;;;;;;;14.85;13.45;;;19.70;99.90;;;;;;5063341;28;20036;-76
2023/08/24 06:28:13;;;;;;;15.27;13.77;;;19.70;99.90;;;;;;5049778;28;20106;-76
2023/08/24 06:30:39;;;;;;;13.82;12.60;;;19.80;99.90;;;;;;5069252;28;20020;-75
2023/08/24 06:33:06;;;;;;;21.02;16.27;;;19.80;99.90;;;;;;5083488;28;20020;-75
2023/08/24 06:35:35;;;;;;;17.08;15.18;;;19.80;99.90;;;;;;5064353;28;20381;-75
2023/08/24 06:38:02;;;;;;;17.67;15.82;;;19.90;99.90;;;;;;5062944;28;20119;-76
2023/08/24 06:40:28;;;;;;;15.57;12.75;;;19.90;99.90;;;;;;5069250;28;20012;-76
2023/08/24 06:42:54;;;;;;;16.15;14.48;;;19.90;99.90;;;;;;5067653;28;20024;-77
2023/08/24 06:45:20;;;;;;;14.98;13.45;;;20.00;99.90;;;;;;5065977;28;20104;-76
2023/08/24 06:47:45;;;;;;;13.82;12.63;;;20.00;99.90;;;;;;5062558;28;20028;-75
2023/08/24 06:50:11;;;;;;;15.77;14.18;;;20.10;99.90;;;;;;5069269;28;20044;-76
2023/08/24 06:52:37;;;;;;;15.30;13.80;;;20.10;99.90;;;;;;5054296;28;20404;-73
2023/08/24 06:55:03;;;;;;;18.40;16.25;;;20.20;99.90;;;;;;5067037;28;20568;-73
2023/08/24 06:57:29;;;;;;;17.13;14.68;;;20.20;99.90;;;;;;5057212;28;20045;-73
2023/08/24 06:59:54;;;;;;;16.08;14.45;;;20.20;99.90;;;;;;5065392;28;20088;-73
2023/08/24 07:02:20;;;;;;;15.30;13.82;;;20.30;99.90;;;;;;5064203;28;20029;-72
2023/08/24 07:04:46;;;;;;;17.42;13.75;;;20.30;99.90;;;;;;5065951;28;20028;-72
2023/08/24 07:07:11;;;;;;;14.85;13.50;;;20.40;99.90;;;;;;5063399;28;20033;-73
2023/08/24 07:09:37;;;;;;;14.40;13.13;;;20.50;99.90;;;;;;5060350;28;20447;-72
2023/08/24 07:12:06;;;;;;;13.23;11.90;;;20.50;99.90;;;;;;5059907;28;20028;-72
2023/08/24 07:14:32;;;;;;;14.10;12.73;;;20.50;99.90;;;;;;5056415;28;20500;-72
2023/08/24 07:16:57;;;;;;;10.38;9.30;;;20.60;99.90;;;;;;5054999;28;20028;-72
2023/08/24 07:19:24;;;;;;;15.38;13.93;;;20.70;99.90;;;;;;5055202;28;20028;-72
2023/08/24 07:21:50;;;;;;;14.98;13.40;;;20.80;99.90;;;;;;5060393;28;20035;-72
2023/08/24 07:24:18;;;;;;;15.00;13.70;;;20.80;99.90;;;;;;5056715;28;20021;-73
2023/08/24 07:26:45;;;;;;;15.35;13.80;;;20.90;99.90;;;;;;5059655;28;20373;-73
2023/08/24 07:29:11;;;;;;;15.68;12.82;;;21.00;99.90;;;;;;5057197;28;20327;-73
2023/08/24 07:31:36;;;;;;;14.35;12.88;;;21.10;99.90;;;;;;5058983;28;20099;-72
2023/08/24 07:34:03;;;;;;;13.85;12.30;;;21.20;99.90;;;;;;5055781;28;20044;-72
2023/08/24 07:36:32;;;;;;;17.42;14.68;;;21.20;99.90;;;;;;5058800;28;20571;-72
2023/08/24 07:38:58;;;;;;;15.60;13.15;;;21.30;99.90;;;;;;5057142;28;20025;-73
2023/08/24 07:41:23;;;;;;;14.15;12.32;;;21.40;99.90;;;;;;5049890;28;20100;-72
2023/08/24 07:43:49;;;;;;;15.80;12.90;;;21.40;99.90;;;;;;5047800;28;20053;-72
2023/08/24 07:46:14;;;;;;;15.15;13.05;;;21.50;99.90;;;;;;5048081;28;20037;-73
2023/08/24 07:48:40;;;;;;;14.93;11.57;;;21.60;99.90;;;;;;5048681;28;20104;-72
2023/08/24 07:51:06;;;;;;;13.13;11.77;;;21.60;99.90;;;;;;5048460;28;20119;-73
2023/08/24 07:53:32;;;;;;;12.70;11.32;;;21.70;99.90;;;;;;5060363;28;20370;-73
2023/08/24 07:55:58;;;;;;;16.60;12.02;;;21.80;99.90;;;;;;5062405;28;20025;-73
2023/08/24 07:58:25;;;;;;;12.35;11.05;;;21.90;99.90;;;;;;5067441;28;20032;-73
2023/08/24 08:00:54;;;;;;;13.70;12.05;;;22.00;99.90;;;;;;5064865;28;20086;-73
2023/08/24 08:03:20;;;;;;;14.85;11.73;;;22.10;99.90;;;;;;5047802;28;20033;-73
2023/08/24 08:05:47;;;;;;;15.70;12.02;;;22.10;99.90;;;;;;5063222;28;20017;-73
2023/08/24 08:08:15;;;;;;;15.43;11.57;;;22.20;99.90;;;;;;5067967;28;20032;-73
2023/08/24 08:10:41;;;;;;;14.10;12.02;;;22.30;99.90;;;;;;5053974;28;20032;-73
2023/08/24 08:13:08;;;;;;;13.52;12.15;;;22.30;99.90;;;;;;5057580;28;20037;-72
2023/08/24 08:15:34;;;;;;;12.00;10.75;;;22.40;99.90;;;;;;5066292;28;20024;-73
2023/08/24 08:17:59;;;;;;;10.75;9.65;;;22.50;99.90;;;;;;5067579;28;20334;-72
2023/08/24 08:20:25;;;;;;;12.90;11.60;;;22.70;99.90;;;;;;5064313;28;20020;-72
2023/08/24 08:22:51;;;;;;;13.52;10.98;;;22.80;99.90;;;;;;5051827;28;20025;-73
2023/08/24 08:25:21;;;;;;;14.32;12.93;;;22.90;99.90;;;;;;5052237;28;20013;-73
2023/08/24 08:27:48;;;;;;;12.00;10.90;;;23.10;99.90;;;;;;5052056;28;20043;-73
2023/08/24 08:30:14;;;;;;;14.68;11.15;;;23.20;99.90;;;;;;5051655;28;20017;-72
2023/08/24 08:32:40;;;;;;;15.82;10.77;;;23.30;99.90;;;;;;5061580;28;20031;-73
2023/08/24 08:35:06;;;;;;;11.68;9.55;;;23.50;99.60;;;;;;5067298;28;20025;-73
2023/08/24 08:37:34;;;;;;;12.30;10.50;;;23.60;99.50;;;;;;5058773;28;20086;-72
2023/08/24 08:39:59;;;;;;;17.25;12.95;;;23.70;99.50;;;;;;5062922;28;20017;-73
2023/08/24 08:42:25;;;;;;;12.57;11.38;;;23.80;99.30;;;;;;5068390;28;20091;-72
2023/08/24 08:44:54;;;;;;;11.23;10.13;;;23.90;99.10;;;;;;5063982;28;20426;-73
2023/08/24 08:47:20;;;;;;;14.10;12.70;;;23.90;98.90;;;;;;5068156;28;20020;-73
2023/08/24 08:49:48;;;;;;;11.65;10.55;;;23.90;98.70;;;;;;5062909;28;20473;-73
2023/08/24 08:52:14;;;;;;;13.10;10.52;;;24.00;98.60;;;;;;5051395;28;20058;-73
2023/08/24 08:54:40;;;;;;;13.50;12.10;;;24.20;98.70;;;;;;5064469;28;20080;-73
2023/08/24 08:57:06;;;;;;;13.90;12.32;;;24.20;98.50;;;;;;5070690;28;20017;-73
2023/08/24 08:59:32;;;;;;;15.30;11.55;;;24.30;98.30;;;;;;5069452;28;20025;-72
2023/08/24 09:02:01;;;;;;;14.60;12.63;;;24.30;98.40;;;;;;5070291;28;20032;-73
2023/08/24 09:04:29;;;;;;;13.88;11.27;;;24.40;98.30;;;;;;5070182;28;20044;-73
2023/08/24 09:06:56;;;;;;;13.35;11.38;;;24.40;98.00;;;;;;5070472;28;20032;-72
2023/08/24 09:09:22;;;;;;;13.27;11.10;;;24.60;97.90;;;;;;5068478;28;20525;-73
2023/08/24 09:11:48;;;;;;;13.07;11.77;;;24.60;97.90;;;;;;5069915;28;20021;-73
2023/08/24 09:14:14;;;;;;;13.18;11.38;;;24.70;97.60;;;;;;5069087;28;20016;-73
2023/08/24 09:16:41;;;;;;;15.30;13.77;;;24.70;97.40;;;;;;5070409;28;20062;-73
2023/08/24 09:19:10;;;;;;;13.13;11.82;;;24.80;97.10;;;;;;5069155;28;20029;-73
2023/08/24 09:21:39;;;;;;;17.08;11.85;;;24.80;97.00;;;;;;5067641;28;20426;-73
2023/08/24 09:24:06;;;;;;;14.50;11.43;;;24.80;96.90;;;;;;5053106;28;20036;-73
2023/08/24 09:26:33;;;;;;;16.55;13.88;;;24.80;97.20;;;;;;5063154;28;20154;-73
2023/08/24 09:29:00;;;;;;;13.15;10.63;;;24.90;97.00;;;;;;5063763;28;20480;-72
2023/08/24 09:31:37;;;;;;;13.13;11.68;;;24.90;96.90;;;;;;5068744;28;20035;-73
2023/08/24 09:34:03;;;;;;;10.18;9.27;;;24.90;96.60;;;;;;5060593;28;20025;-73
2023/08/24 09:36:33;;;;;;;14.93;11.27;;;24.90;96.70;;;;;;5054207;28;20024;-73
2023/08/24 09:39:05;;;;;;;15.90;10.65;;;24.90;96.60;;;;;;5051387;28;20025;-72
2023/08/24 09:41:50;;;;;;;11.15;9.45;;;25.00;96.80;;;;;;5054074;28;20043;-72
2023/08/24 09:44:19;;;;;;;15.55;11.77;;;25.10;96.90;;;;;;5051887;28;20025;-72
2023/08/24 09:46:45;;;;;;;14.05;12.65;;;25.20;96.90;;;;;;5053043;28;20123;-73
2023/08/24 09:49:11;;;;;;;17.23;12.05;;;25.20;96.50;;;;;;5059688;28;20484;-73
2023/08/24 09:51:39;;;;;;;15.50;12.10;;;25.30;96.20;;;;;;5048529;28;20076;-73
2023/08/24 09:54:08;;;;;;;13.73;10.55;;;25.30;96.10;;;;;;5049661;28;20037;-73
2023/08/24 09:56:36;;;;;;;11.13;10.00;;;25.40;95.90;;;;;;5036590;28;20112;-73
2023/08/24 09:59:12;;;;;;;11.50;10.35;;;25.50;96.00;;;;;;5062921;28;20508;-73
2023/08/24 10:01:39;;;;;;;13.77;10.45;;;25.60;95.80;;;;;;5067149;28;20020;-73
2023/08/24 10:04:06;;;;;;;13.27;9.57;;;25.70;95.80;;;;;;5065340;28;20468;-72
2023/08/24 10:06:33;;;;;;;9.60;8.52;;;25.90;96.00;;;;;;5061800;28;20027;-73
2023/08/24 10:09:05;;;;;;;10.70;9.07;;;25.90;95.40;;;;;;5053216;28;20402;-73
2023/08/24 10:11:36;;;;;;;11.50;8.73;;;26.00;95.10;;;;;;5045590;28;20064;-73
2023/08/24 10:14:13;;;;;;;13.50;9.65;;;26.00;95.10;;;;;;5064906;28;20108;-73
2023/08/24 10:16:40;;;;;;;14.45;10.18;;;26.10;95.10;;;;;;5064603;28;20036;-73
2023/08/24 10:19:06;;;;;;;11.70;9.63;;;26.10;94.90;;;;;;5064078;28;20549;-73
2023/08/24 10:21:33;;;;;;;9.55;8.55;;;26.10;94.90;;;;;;5067364;28;20028;-73
2023/08/24 10:24:02;;;;;;;13.13;8.82;;;26.00;94.80;;;;;;5064937;28;20020;-73
2023/08/24 10:26:28;;;;;;;12.57;9.23;;;26.00;94.90;;;;;;5066287;28;20025;-73
2023/08/24 10:28:55;;;;;;;14.10;8.77;;;26.00;94.90;;;;;;5064605;28;20437;-73
2023/08/24 10:31:21;;;;;;;11.77;8.45;;;25.90;94.90;;;;;;5066849;28;20044;-73
2023/08/24 10:33:48;;;;;;;9.55;7.63;;;25.90;94.80;;;;;;5053360;28;20020;-73
2023/08/24 10:36:14;;;;;;;10.40;8.38;;;25.90;95.00;;;;;;5066928;28;20477;-73
2023/08/24 10:38:42;;;;;;;9.82;7.60;;;25.80;95.10;;;;;;5064194;28;20024;-73
2023/08/24 10:41:08;;;;;;;7.57;6.70;;;25.70;95.30;;;;;;5065666;28;20024;-73
2023/08/24 10:43:38;;;;;;;8.65;7.85;;;25.60;95.30;;;;;;5053897;28;20021;-73
2023/08/24 10:46:04;;;;;;;10.43;6.38;;;25.60;95.50;;;;;;5065051;28;20027;-73
2023/08/24 10:48:50;;;;;;;8.45;7.07;;;25.50;95.80;;;;;;5063751;28;20056;-73
2023/08/24 10:51:25;;;;;;;12.00;7.82;;;25.40;95.90;;;;;;5054607;28;20016;-73
2023/08/24 10:53:53;;;;;;;8.05;6.38;;;25.30;95.90;;;;;;5061626;28;20048;-73
2023/08/24 10:56:19;;;;;;;10.45;7.10;;;25.20;96.00;;;;;;5067951;28;20025;-74
2023/08/24 10:58:47;;;;;;;9.70;7.18;;;25.20;96.10;;;;;;5057028;28;20355;-72
2023/08/24 11:01:17;;;;;;;8.95;7.53;;;25.20;96.20;;;;;;5066805;28;20938;-73
2023/08/24 11:03:50;;;;;;;9.48;6.97;;;25.20;96.50;;;;;;5052869;28;20020;-73
2023/08/24 11:06:20;;;;;;;8.98;6.50;;;25.20;96.60;;;;;;5044450;28;20021;-73
2023/08/24 11:08:47;;;;;;;7.65;6.88;;;25.20;96.90;;;;;;5042554;28;20028;-73
2023/08/24 11:11:23;;;;;;;7.85;6.07;;;25.20;96.90;;;;;;5048651;28;20028;-72
2023/08/24 11:14:14;;;;;;;9.05;7.47;;;25.20;97.10;;;;;;5061491;28;20023;-73
2023/08/24 11:16:45;;;;;;;9.25;8.25;;;25.20;97.20;;;;;;5048531;28;20117;-73
2023/08/24 11:19:15;;;;;;;10.05;7.45;;;25.30;96.90;;;;;;5047967;28;20029;-73
2023/08/24 11:21:42;;;;;;;11.77;8.30;;;25.30;97.00;;;;;;5048649;28;20037;-73
2023/08/24 11:24:10;;;;;;;10.95;8.35;;;25.30;97.00;;;;;;5047533;28;20104;-73
2023/08/24 11:26:41;;;;;;;11.07;7.75;;;25.30;97.20;;;;;;5048332;28;20025;-72
2023/08/24 11:29:06;;;;;;;15.57;8.80;;;25.20;96.80;;;;;;5048023;28;20121;-73
2023/08/24 11:31:34;;;;;;;11.50;8.20;;;25.20;97.10;;;;;;5048725;28;20085;-73
2023/08/24 11:34:00;;;;;;;9.45;7.95;;;25.20;97.10;;;;;;5055313;28;20028;-74
2023/08/24 11:36:25;;;;;;;9.95;8.68;;;25.20;97.10;;;;;;5058308;28;20415;-74
2023/08/24 11:38:57;;;;;;;10.65;9.40;;;25.30;97.00;;;;;;5060564;28;20032;-74
2023/08/24 11:41:23;;;;;;;11.63;8.17;;;25.40;96.70;;;;;;5056423;28;20017;-73
2023/08/24 11:43:50;;;;;;;12.23;8.55;;;25.40;96.70;;;;;;5051668;28;20493;-73
2023/08/24 11:46:18;;;;;;;11.68;8.65;;;25.50;96.50;;;;;;5056084;28;20048;-73
2023/08/24 11:48:45;;;;;;;19.23;10.88;;;25.60;96.50;;;;;;5060907;28;20039;-74
2023/08/24 11:51:12;;;;;;;11.43;8.98;;;25.60;96.30;;;;;;5047263;28;20079;-74
2023/08/24 11:53:45;;;;;;;11.10;7.97;;;25.60;96.20;;;;;;5047061;28;20192;-73
2023/08/24 11:56:12;;;;;;;;;;;25.60;96.20;;;;;;5047752;28;20555;-74
2023/08/24 11:58:39;;;;;;;13.27;8.20;;;25.60;96.20;;;;;;5049842;28;19993;-74
2023/08/24 12:01:05;;;;;;;9.80;8.73;;;25.60;96.30;;;;;;5052821;28;20027;-73
2023/08/24 12:03:32;;;;;;;10.98;9.85;;;25.70;96.20;;;;;;5051950;28;20025;-74
2023/08/24 12:06:03;;;;;;;12.80;9.23;;;25.80;96.10;;;;;;5053523;28;20418;-74
2023/08/24 12:08:29;;;;;;;11.45;9.88;;;25.90;96.00;;;;;;5049837;28;20385;-73
2023/08/24 12:10:55;;;;;;;11.10;9.02;;;25.90;95.80;;;;;;5049996;28;20029;-73
2023/08/24 12:13:22;;;;;;;13.75;9.93;;;26.00;95.80;;;;;;5051991;28;20095;-74
2023/08/24 12:15:50;;;;;;;11.57;9.40;;;26.20;95.70;;;;;;5052157;28;20025;-73
2023/08/24 12:18:16;;;;;;;13.88;9.13;;;26.20;95.50;;;;;;5056901;28;20025;-73
2023/08/24 12:20:41;;;;;;;12.02;10.25;;;26.30;95.70;;;;;;5053380;28;20086;-73
2023/08/24 12:23:09;;;;;;;12.95;9.48;;;26.30;95.50;;;;;;5051853;28;20033;-73
2023/08/24 12:25:42;;;;;;;10.73;9.60;;;26.30;95.40;;;;;;5050500;28;20108;-73
2023/08/24 12:28:15;;;;;;;11.20;9.82;;;26.30;95.20;;;;;;5051428;28;20028;-74
2023/08/24 12:31:03;;;;;;;11.98;8.38;;;26.40;95.30;;;;;;5050906;28;20029;-73
2023/08/24 12:33:30;;;;;;;11.05;9.40;;;26.40;95.40;;;;;;5047730;28;20033;-73